createdAt,value
2023-02-25T00:00:10.378Z,112
2023-02-25T00:01:10.645Z,112
2023-02-25T00:02:12.910Z,112
2023-02-25T00:03:10.733Z,112
2023-02-25T00:04:10.022Z,112
2023-02-25T00:05:10.014Z,112
2023-02-25T00:06:10.842Z,112
2023-02-25T00:07:10.763Z,110
2023-02-25T00:08:10.317Z,110
2023-02-25T00:09:09.816Z,110
2023-02-25T00:10:10.810Z,110
2023-02-25T00:11:10.454Z,110
2023-02-25T00:12:10.269Z,110
2023-02-25T00:13:25.367Z,110
2023-02-25T00:14:10.538Z,110
2023-02-25T00:15:10.426Z,110
2023-02-25T00:16:10.231Z,110
2023-02-25T00:17:10.184Z,110
2023-02-25T00:18:10.933Z,110
2023-02-25T00:19:10.807Z,110
2023-02-25T00:20:10.482Z,110
2023-02-25T00:21:10.837Z,110
2023-02-25T00:22:10.476Z,110
2023-02-25T00:23:10.519Z,110
2023-02-25T00:24:23.885Z,110
2023-02-25T00:26:10.491Z,110
2023-02-25T00:27:10.398Z,110
2023-02-25T00:28:10.187Z,110
2023-02-25T00:29:10.019Z,110
2023-02-25T00:30:10.679Z,110
2023-02-25T00:31:11.528Z,110
2023-02-25T00:32:12.108Z,110
2023-02-25T00:33:10.582Z,110
2023-02-25T00:34:10.922Z,110
2023-02-25T00:35:10.349Z,110
2023-02-25T00:36:09.940Z,110
2023-02-25T00:37:11.092Z,110
2023-02-25T00:38:23.607Z,110
2023-02-25T00:40:10.249Z,110
2023-02-25T00:41:10.155Z,110
2023-02-25T00:42:09.937Z,110
2023-02-25T00:43:10.521Z,110
2023-02-25T00:44:10.436Z,110
2023-02-25T00:45:10.196Z,110
2023-02-25T00:46:10.369Z,110
2023-02-25T00:47:10.786Z,110
2023-02-25T00:48:10.205Z,110
2023-02-25T00:49:10.081Z,110
2023-02-25T00:50:09.977Z,110
2023-02-25T00:51:09.872Z,110
2023-02-25T00:52:10.932Z,110
2023-02-25T00:53:10.749Z,110
2023-02-25T00:54:10.447Z,110
2023-02-25T00:55:10.112Z,110
2023-02-25T00:56:10.112Z,110
2023-02-25T00:57:10.008Z,110
2023-02-25T00:58:10.876Z,110
2023-02-25T00:59:10.517Z,110
2023-02-25T01:00:10.511Z,110
2023-02-25T01:01:10.750Z,110
2023-02-25T01:02:10.475Z,110
2023-02-25T01:03:10.303Z,110
2023-02-25T01:04:10.486Z,110
2023-02-25T01:05:11.065Z,110
2023-02-25T01:06:10.146Z,110
2023-02-25T01:07:12.154Z,109
2023-02-25T01:08:10.521Z,109
2023-02-25T01:09:10.525Z,109
2023-02-25T01:10:10.290Z,109
2023-02-25T01:11:10.258Z,109
2023-02-25T01:12:10.351Z,109
2023-02-25T01:13:10.183Z,109
2023-02-25T01:14:10.550Z,109
2023-02-25T01:15:10.976Z,109
2023-02-25T01:16:10.633Z,109
2023-02-25T01:17:09.971Z,109
2023-02-25T01:18:10.761Z,109
2023-02-25T01:19:10.693Z,109
2023-02-25T01:20:10.369Z,109
2023-02-25T01:21:10.731Z,109
2023-02-25T01:22:10.384Z,109
2023-02-25T01:23:10.253Z,109
2023-02-25T01:24:09.902Z,109
2023-02-25T01:25:09.917Z,109
2023-02-25T01:26:10.214Z,109
2023-02-25T01:27:10.066Z,109
2023-02-25T01:28:10.475Z,109
2023-02-25T01:29:10.468Z,109
2023-02-25T01:30:10.285Z,109
2023-02-25T01:31:11.179Z,109
2023-02-25T01:32:11.677Z,109
2023-02-25T01:33:10.497Z,109
2023-02-25T01:34:09.942Z,109
2023-02-25T01:35:10.940Z,109
2023-02-25T01:36:09.858Z,109
2023-02-25T01:37:10.624Z,109
2023-02-25T01:38:10.250Z,109
2023-02-25T01:39:11.952Z,109
2023-02-25T01:40:10.130Z,109
2023-02-25T01:41:10.452Z,109
2023-02-25T01:42:10.493Z,109
2023-02-25T01:43:10.191Z,109
2023-02-25T01:44:09.809Z,109
2023-02-25T01:45:10.762Z,109
2023-02-25T01:46:10.226Z,109
2023-02-25T01:47:11.016Z,109
2023-02-25T01:48:10.653Z,109
2023-02-25T01:49:10.912Z,109
2023-02-25T01:50:10.214Z,109
2023-02-25T01:51:10.329Z,109
2023-02-25T01:52:10.146Z,109
2023-02-25T01:53:10.703Z,109
2023-02-25T01:54:10.965Z,109
2023-02-25T01:55:10.291Z,109
2023-02-25T01:56:10.265Z,109
2023-02-25T01:57:10.019Z,109
2023-02-25T01:58:10.774Z,109
2023-02-25T01:59:10.541Z,109
2023-02-25T02:00:10.363Z,109
2023-02-25T02:01:11.010Z,109
2023-02-25T02:02:10.921Z,109
2023-02-25T02:03:10.018Z,109
2023-02-25T02:04:10.870Z,109
2023-02-25T02:05:10.685Z,109
2023-02-25T02:06:09.883Z,109
2023-02-25T02:07:09.935Z,107
2023-02-25T02:08:10.639Z,107
2023-02-25T02:09:10.252Z,107
2023-02-25T02:10:10.098Z,107
2023-02-25T02:11:10.119Z,107
2023-02-25T02:12:09.660Z,107
2023-02-25T02:13:10.738Z,107
2023-02-25T02:14:10.167Z,107
2023-02-25T02:15:10.196Z,107
2023-02-25T02:16:10.677Z,107
2023-02-25T02:17:10.228Z,107
2023-02-25T02:18:10.060Z,107
2023-02-25T02:19:10.874Z,107
2023-02-25T02:20:10.573Z,107
2023-02-25T02:21:10.638Z,107
2023-02-25T02:22:10.358Z,107
2023-02-25T02:23:10.262Z,107
2023-02-25T02:24:10.061Z,107
2023-02-25T02:25:10.634Z,107
2023-02-25T02:26:10.772Z,107
2023-02-25T02:27:10.680Z,107
2023-02-25T02:28:10.420Z,107
2023-02-25T02:29:10.278Z,107
2023-02-25T02:30:10.243Z,107
2023-02-25T02:31:11.439Z,107
2023-02-25T02:32:11.497Z,107
2023-02-25T02:33:10.390Z,107
2023-02-25T02:34:10.302Z,107
2023-02-25T02:35:09.926Z,107
2023-02-25T02:36:10.597Z,107
2023-02-25T02:37:10.340Z,107
2023-02-25T02:38:10.033Z,107
2023-02-25T02:39:10.012Z,107
2023-02-25T02:40:10.842Z,107
2023-02-25T02:41:10.272Z,107
2023-02-25T02:42:09.984Z,107
2023-02-25T02:43:10.602Z,107
2023-02-25T02:44:10.381Z,107
2023-02-25T02:45:10.206Z,107
2023-02-25T02:46:10.519Z,107
2023-02-25T02:47:10.266Z,107
2023-02-25T02:48:09.955Z,107
2023-02-25T02:49:10.841Z,107
2023-02-25T02:50:10.557Z,107
2023-02-25T02:51:10.632Z,107
2023-02-25T02:52:10.335Z,107
2023-02-25T02:53:10.347Z,107
2023-02-25T02:54:10.153Z,107
2023-02-25T02:55:09.929Z,107
2023-02-25T02:56:09.722Z,107
2023-02-25T02:57:10.983Z,107
2023-02-25T02:58:10.509Z,107
2023-02-25T02:59:10.683Z,107
2023-02-25T03:00:10.129Z,107
2023-02-25T03:01:11.095Z,107
2023-02-25T03:02:10.540Z,107
2023-02-25T03:03:10.081Z,107
2023-02-25T03:04:10.619Z,107
2023-02-25T03:05:09.901Z,107
2023-02-25T03:06:10.183Z,107
2023-02-25T03:07:11.042Z,105
2023-02-25T03:08:10.387Z,105
2023-02-25T03:09:10.241Z,105
2023-02-25T03:10:10.098Z,105
2023-02-25T03:11:09.928Z,105
2023-02-25T03:12:10.785Z,105
2023-02-25T03:13:10.349Z,105
2023-02-25T03:14:10.209Z,105
2023-02-25T03:15:10.289Z,105
2023-02-25T03:16:10.357Z,105
2023-02-25T03:17:10.209Z,105
2023-02-25T03:18:10.668Z,105
2023-02-25T03:19:10.526Z,105
2023-02-25T03:20:10.455Z,105
2023-02-25T03:21:10.963Z,105
2023-02-25T03:22:10.673Z,105
2023-02-25T03:23:10.552Z,105
2023-02-25T03:24:10.316Z,105
2023-02-25T03:25:10.119Z,105
2023-02-25T03:26:10.359Z,105
2023-02-25T03:27:10.315Z,105
2023-02-25T03:28:10.086Z,105
2023-02-25T03:29:10.604Z,105
2023-02-25T03:30:10.640Z,105
2023-02-25T03:31:10.618Z,105
2023-02-25T03:32:10.799Z,105
2023-02-25T03:33:10.942Z,105
2023-02-25T03:34:10.547Z,105
2023-02-25T03:35:10.716Z,105
2023-02-25T03:36:10.272Z,105
2023-02-25T03:37:10.199Z,105
2023-02-25T03:38:10.146Z,105
2023-02-25T03:39:10.826Z,105
2023-02-25T03:40:10.656Z,105
2023-02-25T03:41:10.879Z,105
2023-02-25T03:42:10.694Z,105
2023-02-25T03:43:12.561Z,105
2023-02-25T03:44:10.179Z,105
2023-02-25T03:45:10.237Z,105
2023-02-25T03:46:10.732Z,105
2023-02-25T03:47:10.877Z,105
2023-02-25T03:48:10.612Z,105
2023-02-25T03:49:10.461Z,105
2023-02-25T03:50:10.164Z,105
2023-02-25T03:51:10.333Z,105
2023-02-25T03:52:10.298Z,105
2023-02-25T03:53:09.999Z,105
2023-02-25T03:54:09.849Z,105
2023-02-25T03:55:10.960Z,105
2023-02-25T03:56:10.041Z,105
2023-02-25T03:57:10.905Z,105
2023-02-25T03:58:10.695Z,105
2023-02-25T03:59:10.560Z,105
2023-02-25T04:00:10.400Z,105
2023-02-25T04:01:10.550Z,105
2023-02-25T04:02:10.506Z,105
2023-02-25T04:03:09.990Z,105
2023-02-25T04:04:10.516Z,105
2023-02-25T04:05:10.661Z,105
2023-02-25T04:06:10.741Z,105
2023-02-25T04:07:10.592Z,102
2023-02-25T04:08:10.211Z,102
2023-02-25T04:09:10.092Z,102
2023-02-25T04:10:10.019Z,102
2023-02-25T04:11:10.124Z,102
2023-02-25T04:12:10.054Z,102
2023-02-25T04:13:10.846Z,102
2023-02-25T04:14:10.784Z,102
2023-02-25T04:15:10.432Z,102
2023-02-25T04:16:10.902Z,102
2023-02-25T04:17:10.309Z,102
2023-02-25T04:18:09.800Z,102
2023-02-25T04:19:10.708Z,102
2023-02-25T04:20:10.325Z,102
2023-02-25T04:21:09.794Z,102
2023-02-25T04:22:10.769Z,102
2023-02-25T04:23:10.519Z,102
2023-02-25T04:24:10.130Z,102
2023-02-25T04:25:09.969Z,102
2023-02-25T04:26:10.183Z,102
2023-02-25T04:27:10.816Z,102
2023-02-25T04:28:10.544Z,102
2023-02-25T04:29:10.886Z,102
2023-02-25T04:30:10.454Z,102
2023-02-25T04:31:11.373Z,102
2023-02-25T04:32:11.027Z,102
2023-02-25T04:33:09.815Z,102
2023-02-25T04:34:10.910Z,102
2023-02-25T04:35:10.642Z,102
2023-02-25T04:36:09.865Z,102
2023-02-25T04:37:09.945Z,102
2023-02-25T04:38:13.283Z,102
2023-02-25T04:39:10.440Z,102
2023-02-25T04:40:10.286Z,102
2023-02-25T04:41:10.724Z,102
2023-02-25T04:42:10.574Z,102
2023-02-25T04:43:10.161Z,102
2023-02-25T04:44:10.173Z,102
2023-02-25T04:45:10.976Z,102
2023-02-25T04:46:10.462Z,102
2023-02-25T04:47:10.399Z,102
2023-02-25T04:48:10.052Z,102
2023-02-25T04:49:10.102Z,102
2023-02-25T04:50:10.861Z,102
2023-02-25T04:51:10.050Z,102
2023-02-25T04:52:10.841Z,102
2023-02-25T04:53:10.660Z,102
2023-02-25T04:54:10.364Z,102
2023-02-25T04:55:10.103Z,102
2023-02-25T04:56:10.292Z,102
2023-02-25T04:57:10.054Z,102
2023-02-25T04:58:10.884Z,102
2023-02-25T04:59:10.785Z,102
2023-02-25T05:00:10.608Z,102
2023-02-25T05:01:10.790Z,102
2023-02-25T05:02:09.392Z,102
2023-02-25T05:03:10.761Z,102
2023-02-25T05:04:10.498Z,102
2023-02-25T05:05:10.750Z,102
2023-02-25T05:06:11.021Z,102
2023-02-25T05:07:10.277Z,103
2023-02-25T05:08:10.269Z,103
2023-02-25T05:09:13.462Z,103
2023-02-25T05:10:10.882Z,103
2023-02-25T05:11:09.854Z,103
2023-02-25T05:12:10.833Z,103
2023-02-25T05:13:10.340Z,103
2023-02-25T05:14:10.478Z,103
2023-02-25T05:15:10.707Z,103
2023-02-25T05:16:10.285Z,103
2023-02-25T05:17:10.736Z,103
2023-02-25T05:18:10.801Z,103
2023-02-25T05:19:10.546Z,103
2023-02-25T05:20:10.613Z,103
2023-02-25T05:21:10.677Z,103
2023-02-25T05:22:10.293Z,103
2023-02-25T05:23:10.323Z,103
2023-02-25T05:24:10.173Z,103
2023-02-25T05:25:10.915Z,103
2023-02-25T05:26:10.088Z,103
2023-02-25T05:27:10.746Z,103
2023-02-25T05:28:12.746Z,103
2023-02-25T05:29:10.123Z,103
2023-02-25T05:30:10.533Z,103
2023-02-25T05:31:10.689Z,103
2023-02-25T05:32:11.018Z,103
2023-02-25T05:33:11.297Z,103
2023-02-25T05:34:10.463Z,103
2023-02-25T05:35:10.468Z,103
2023-02-25T05:36:10.439Z,103
2023-02-25T05:37:10.154Z,103
2023-02-25T05:38:10.065Z,103
2023-02-25T05:39:10.904Z,103
2023-02-25T05:40:10.717Z,103
2023-02-25T05:41:09.932Z,103
2023-02-25T05:42:10.612Z,103
2023-02-25T05:43:10.720Z,103
2023-02-25T05:44:10.448Z,103
2023-02-25T05:45:10.079Z,103
2023-02-25T05:46:10.749Z,103
2023-02-25T05:47:10.811Z,103
2023-02-25T05:48:10.100Z,103
2023-02-25T05:49:09.965Z,103
2023-02-25T05:50:10.980Z,103
2023-02-25T05:51:10.349Z,103
2023-02-25T05:52:09.943Z,103
2023-02-25T05:53:10.799Z,103
2023-02-25T05:54:10.548Z,103
2023-02-25T05:55:10.213Z,103
2023-02-25T05:56:10.584Z,103
2023-02-25T05:57:10.302Z,103
2023-02-25T05:58:10.037Z,103
2023-02-25T05:59:09.738Z,103
2023-02-25T06:00:10.446Z,103
2023-02-25T06:01:09.872Z,103
2023-02-25T06:02:11.077Z,103
2023-02-25T06:03:10.860Z,103
2023-02-25T06:04:10.047Z,103
2023-02-25T06:05:10.649Z,103
2023-02-25T06:06:10.218Z,103
2023-02-25T06:07:10.059Z,109
2023-02-25T06:08:10.905Z,109
2023-02-25T06:09:10.614Z,109
2023-02-25T06:10:10.137Z,109
2023-02-25T06:11:10.907Z,109
2023-02-25T06:12:10.470Z,109
2023-02-25T06:13:10.184Z,109
2023-02-25T06:14:10.005Z,109
2023-02-25T06:15:09.940Z,109
2023-02-25T06:16:10.374Z,109
2023-02-25T06:17:11.014Z,109
2023-02-25T06:18:10.767Z,109
2023-02-25T06:19:10.312Z,109
2023-02-25T06:20:10.360Z,109
2023-02-25T06:21:10.296Z,109
2023-02-25T06:22:10.322Z,109
2023-02-25T06:23:10.202Z,109
2023-02-25T06:24:13.889Z,109
2023-02-25T06:25:10.651Z,109
2023-02-25T06:26:10.902Z,109
2023-02-25T06:27:10.469Z,109
2023-02-25T06:28:10.300Z,109
2023-02-25T06:29:10.126Z,109
2023-02-25T06:30:09.921Z,109
2023-02-25T06:31:10.499Z,109
2023-02-25T06:32:11.001Z,109
2023-02-25T06:33:10.717Z,109
2023-02-25T06:34:10.372Z,109
2023-02-25T06:35:10.293Z,109
2023-02-25T06:36:10.517Z,109
2023-02-25T06:37:10.268Z,109
2023-02-25T06:38:10.190Z,109
2023-02-25T06:39:10.843Z,109
2023-02-25T06:40:10.644Z,109
2023-02-25T06:41:09.876Z,109
2023-02-25T06:42:10.817Z,109
2023-02-25T06:43:10.449Z,109
2023-02-25T06:44:10.366Z,109
2023-02-25T06:45:10.130Z,109
2023-02-25T06:46:10.983Z,109
2023-02-25T06:47:10.607Z,109
2023-02-25T06:48:10.224Z,109
2023-02-25T06:49:09.975Z,109
2023-02-25T06:50:11.256Z,109
2023-02-25T06:51:09.940Z,109
2023-02-25T06:52:09.877Z,109
2023-02-25T06:53:10.749Z,109
2023-02-25T06:54:10.662Z,109
2023-02-25T06:55:10.381Z,109
2023-02-25T06:56:10.551Z,109
2023-02-25T06:57:10.181Z,109
2023-02-25T06:58:10.137Z,109
2023-02-25T06:59:09.947Z,109
2023-02-25T07:00:10.809Z,109
2023-02-25T07:01:10.254Z,109
2023-02-25T07:02:10.858Z,109
2023-02-25T07:03:10.420Z,109
2023-02-25T07:04:10.545Z,109
2023-02-25T07:05:10.137Z,109
2023-02-25T07:06:10.393Z,109
2023-02-25T07:07:10.358Z,105
2023-02-25T07:08:09.950Z,105
2023-02-25T07:09:10.595Z,105
2023-02-25T07:10:10.474Z,105
2023-02-25T07:11:10.176Z,105
2023-02-25T07:12:10.970Z,105
2023-02-25T07:13:10.563Z,105
2023-02-25T07:14:10.341Z,105
2023-02-25T07:15:10.327Z,105
2023-02-25T07:16:11.556Z,105
2023-02-25T07:17:10.023Z,105
2023-02-25T07:18:10.861Z,105
2023-02-25T07:19:10.829Z,105
2023-02-25T07:20:10.553Z,105
2023-02-25T07:21:10.835Z,105
2023-02-25T07:22:10.483Z,105
2023-02-25T07:23:10.396Z,105
2023-02-25T07:24:10.076Z,105
2023-02-25T07:25:11.075Z,105
2023-02-25T07:26:09.944Z,105
2023-02-25T07:27:10.908Z,105
2023-02-25T07:28:10.316Z,105
2023-02-25T07:29:10.201Z,105
2023-02-25T07:30:09.888Z,105
2023-02-25T07:31:10.817Z,105
2023-02-25T07:32:11.051Z,105
2023-02-25T07:33:12.637Z,105
2023-02-25T07:34:10.555Z,105
2023-02-25T07:35:10.498Z,105
2023-02-25T07:36:10.469Z,105
2023-02-25T07:37:10.346Z,105
2023-02-25T07:38:09.878Z,105
2023-02-25T07:39:10.994Z,105
2023-02-25T07:40:10.560Z,105
2023-02-25T07:41:10.030Z,105
2023-02-25T07:42:09.877Z,105
2023-02-25T07:43:10.653Z,105
2023-02-25T07:44:10.579Z,105
2023-02-25T07:45:10.712Z,105
2023-02-25T07:46:11.261Z,105
2023-02-25T07:47:10.698Z,105
2023-02-25T07:48:10.440Z,105
2023-02-25T07:49:09.937Z,105
2023-02-25T07:50:12.644Z,105
2023-02-25T07:51:10.189Z,105
2023-02-25T07:52:10.073Z,105
2023-02-25T07:53:10.492Z,105
2023-02-25T07:54:10.413Z,105
2023-02-25T07:55:10.300Z,105
2023-02-25T07:56:10.496Z,105
2023-02-25T07:57:10.223Z,105
2023-02-25T07:58:13.184Z,105
2023-02-25T07:59:10.772Z,105
2023-02-25T08:00:10.449Z,105
2023-02-25T08:01:10.364Z,105
2023-02-25T08:02:10.091Z,105
2023-02-25T08:03:10.849Z,105
2023-02-25T08:04:10.956Z,105
2023-02-25T08:05:10.068Z,105
2023-02-25T08:06:09.942Z,105
2023-02-25T08:07:10.702Z,106
2023-02-25T08:08:10.645Z,106
2023-02-25T08:09:10.288Z,106
2023-02-25T08:10:09.923Z,106
2023-02-25T08:11:09.794Z,106
2023-02-25T08:12:10.901Z,106
2023-02-25T08:13:10.661Z,106
2023-02-25T08:14:10.386Z,106
2023-02-25T08:15:10.135Z,106
2023-02-25T08:16:10.783Z,106
2023-02-25T08:17:10.230Z,106
2023-02-25T08:18:09.785Z,106
2023-02-25T08:19:10.764Z,106
2023-02-25T08:20:10.573Z,106
2023-02-25T08:21:11.507Z,106
2023-02-25T08:22:10.217Z,106
2023-02-25T08:23:10.389Z,106
2023-02-25T08:24:09.996Z,106
2023-02-25T08:25:10.798Z,106
2023-02-25T08:26:10.508Z,106
2023-02-25T08:27:10.277Z,106
2023-02-25T08:28:10.060Z,106
2023-02-25T08:29:10.748Z,106
2023-02-25T08:30:10.857Z,106
2023-02-25T08:31:10.757Z,106
2023-02-25T08:32:11.388Z,106
2023-02-25T08:33:10.936Z,106
2023-02-25T08:34:10.596Z,106
2023-02-25T08:35:10.484Z,106
2023-02-25T08:36:10.718Z,106
2023-02-25T08:37:10.211Z,106
2023-02-25T08:38:10.022Z,106
2023-02-25T08:39:10.816Z,106
2023-02-25T08:40:10.631Z,106
2023-02-25T08:41:10.688Z,106
2023-02-25T08:42:10.545Z,106
2023-02-25T08:43:10.255Z,106
2023-02-25T08:44:10.155Z,106
2023-02-25T08:45:10.733Z,106
2023-02-25T08:46:11.129Z,106
2023-02-25T08:47:10.694Z,106
2023-02-25T08:48:10.230Z,106
2023-02-25T08:49:09.993Z,106
2023-02-25T08:50:11.027Z,106
2023-02-25T08:51:11.050Z,106
2023-02-25T08:52:10.815Z,106
2023-02-25T08:53:10.516Z,106
2023-02-25T08:54:10.359Z,106
2023-02-25T08:55:10.059Z,106
2023-02-25T08:56:09.844Z,106
2023-02-25T08:57:10.622Z,106
2023-02-25T08:58:10.274Z,106
2023-02-25T08:59:10.490Z,106
2023-02-25T09:00:12.177Z,106
2023-02-25T09:01:10.559Z,106
2023-02-25T09:02:10.551Z,106
2023-02-25T09:03:09.900Z,106
2023-02-25T09:04:11.121Z,106
2023-02-25T09:05:10.727Z,106
2023-02-25T09:06:10.578Z,106
2023-02-25T09:07:10.220Z,104
2023-02-25T09:08:09.983Z,104
2023-02-25T09:09:10.927Z,104
2023-02-25T09:10:10.590Z,104
2023-02-25T09:11:10.354Z,104
2023-02-25T09:12:09.939Z,104
2023-02-25T09:13:09.823Z,104
2023-02-25T09:14:10.890Z,104
2023-02-25T09:15:10.751Z,104
2023-02-25T09:16:10.028Z,104
2023-02-25T09:17:10.621Z,104
2023-02-25T09:18:10.301Z,104
2023-02-25T09:19:09.842Z,104
2023-02-25T09:20:10.706Z,104
2023-02-25T09:21:09.943Z,104
2023-02-25T09:22:10.561Z,104
2023-02-25T09:23:10.557Z,104
2023-02-25T09:24:10.314Z,104
2023-02-25T09:25:10.046Z,104
2023-02-25T09:26:10.568Z,104
2023-02-25T09:27:10.442Z,104
2023-02-25T09:28:09.944Z,104
2023-02-25T09:29:09.866Z,104
2023-02-25T09:30:11.005Z,104
2023-02-25T09:31:11.081Z,104
2023-02-25T09:32:10.942Z,104
2023-02-25T09:33:11.086Z,104
2023-02-25T09:34:09.986Z,104
2023-02-25T09:35:10.686Z,104
2023-02-25T09:36:10.004Z,104
2023-02-25T09:37:09.739Z,104
2023-02-25T09:38:10.537Z,104
2023-02-25T09:39:10.670Z,104
2023-02-25T09:40:10.204Z,104
2023-02-25T09:41:10.382Z,104
2023-02-25T09:42:10.750Z,104
2023-02-25T09:43:10.262Z,104
2023-02-25T09:44:10.312Z,104
2023-02-25T09:45:10.209Z,104
2023-02-25T09:46:10.840Z,104
2023-02-25T09:47:10.307Z,104
2023-02-25T09:48:10.276Z,104
2023-02-25T09:49:10.563Z,104
2023-02-25T09:50:10.388Z,104
2023-02-25T09:51:10.463Z,104
2023-02-25T09:52:10.254Z,104
2023-02-25T09:53:10.041Z,104
2023-02-25T09:54:14.333Z,104
2023-02-25T09:55:10.470Z,104
2023-02-25T09:56:10.166Z,104
2023-02-25T09:57:10.717Z,104
2023-02-25T09:58:09.794Z,104
2023-02-25T09:59:09.962Z,104
2023-02-25T10:00:09.910Z,104
2023-02-25T10:01:10.360Z,104
2023-02-25T10:02:10.549Z,104
2023-02-25T10:03:10.699Z,104
2023-02-25T10:04:10.752Z,104
2023-02-25T10:05:10.748Z,104
2023-02-25T10:06:10.797Z,104
2023-02-25T10:07:10.294Z,101
2023-02-25T10:08:10.121Z,101
2023-02-25T10:09:09.882Z,101
2023-02-25T10:10:10.618Z,101
2023-02-25T10:11:10.742Z,101
2023-02-25T10:12:10.757Z,101
2023-02-25T10:13:10.405Z,101
2023-02-25T10:14:10.344Z,101
2023-02-25T10:15:10.120Z,101
2023-02-25T10:16:10.241Z,101
2023-02-25T10:17:10.219Z,101
2023-02-25T10:18:10.858Z,101
2023-02-25T10:19:10.577Z,101
2023-02-25T10:20:10.139Z,101
2023-02-25T10:21:09.926Z,101
2023-02-25T10:22:10.558Z,101
2023-02-25T10:23:10.444Z,101
2023-02-25T10:24:10.103Z,101
2023-02-25T10:25:10.162Z,101
2023-02-25T10:26:10.864Z,101
2023-02-25T10:27:10.590Z,101
2023-02-25T10:28:10.438Z,101
2023-02-25T10:29:10.317Z,101
2023-02-25T10:30:09.995Z,101
2023-02-25T10:31:11.158Z,101
2023-02-25T10:32:11.283Z,101
2023-02-25T10:33:09.988Z,101
2023-02-25T10:34:12.254Z,101
2023-02-25T10:35:10.614Z,101
2023-02-25T10:36:09.948Z,101
2023-02-25T10:37:10.816Z,101
2023-02-25T10:38:10.723Z,101
2023-02-25T10:39:10.450Z,101
2023-02-25T10:40:12.847Z,101
2023-02-25T10:41:10.856Z,101
2023-02-25T10:42:10.423Z,101
2023-02-25T10:43:10.355Z,101
2023-02-25T10:44:10.273Z,101
2023-02-25T10:45:10.815Z,101
2023-02-25T10:46:10.885Z,101
2023-02-25T10:47:10.315Z,101
2023-02-25T10:48:09.906Z,101
2023-02-25T10:49:18.511Z,101
2023-02-25T10:50:10.579Z,101
2023-02-25T10:51:10.055Z,101
2023-02-25T10:52:10.012Z,101
2023-02-25T10:53:10.769Z,101
2023-02-25T10:54:10.638Z,101
2023-02-25T10:55:10.280Z,101
2023-02-25T10:56:10.518Z,101
2023-02-25T10:57:10.560Z,101
2023-02-25T10:58:09.915Z,101
2023-02-25T10:59:09.834Z,101
2023-02-25T11:00:10.753Z,101
2023-02-25T11:01:10.610Z,101
2023-02-25T11:02:10.339Z,101
2023-02-25T11:03:10.927Z,101
2023-02-25T11:04:10.595Z,101
2023-02-25T11:05:10.256Z,101
2023-02-25T11:06:10.202Z,101
2023-02-25T11:07:09.808Z,103
2023-02-25T11:08:10.828Z,103
2023-02-25T11:09:10.680Z,103
2023-02-25T11:10:10.468Z,103
2023-02-25T11:11:10.404Z,103
2023-02-25T11:12:10.508Z,103
2023-02-25T11:13:10.097Z,103
2023-02-25T11:14:09.902Z,103
2023-02-25T11:15:10.671Z,103
2023-02-25T11:16:10.005Z,103
2023-02-25T11:17:13.528Z,103
2023-02-25T11:18:10.056Z,103
2023-02-25T11:19:09.985Z,103
2023-02-25T11:20:10.590Z,103
2023-02-25T11:21:10.662Z,103
2023-02-25T11:22:10.501Z,103
2023-02-25T11:23:10.250Z,103
2023-02-25T11:24:09.955Z,103
2023-02-25T11:25:11.021Z,103
2023-02-25T11:26:10.192Z,103
2023-02-25T11:27:10.748Z,103
2023-02-25T11:28:10.404Z,103
2023-02-25T11:29:10.340Z,103
2023-02-25T11:30:09.895Z,103
2023-02-25T11:31:11.108Z,103
2023-02-25T11:32:11.372Z,103
2023-02-25T11:33:11.500Z,103
2023-02-25T11:34:10.975Z,103
2023-02-25T11:35:10.678Z,103
2023-02-25T11:36:10.622Z,103
2023-02-25T11:37:11.956Z,103
2023-02-25T11:38:10.218Z,103
2023-02-25T11:39:10.277Z,103
2023-02-25T11:40:09.889Z,103
2023-02-25T11:41:10.010Z,103
2023-02-25T11:42:10.778Z,103
2023-02-25T11:43:10.659Z,103
2023-02-25T11:44:11.582Z,103
2023-02-25T11:45:10.151Z,103
2023-02-25T11:46:10.597Z,103
2023-02-25T11:47:10.251Z,103
2023-02-25T11:48:10.917Z,103
2023-02-25T11:49:10.647Z,103
2023-02-25T11:50:10.628Z,103
2023-02-25T11:51:10.474Z,103
2023-02-25T11:52:10.408Z,103
2023-02-25T11:53:10.257Z,103
2023-02-25T11:54:10.053Z,103
2023-02-25T11:55:13.143Z,103
2023-02-25T11:56:10.193Z,103
2023-02-25T11:57:10.128Z,103
2023-02-25T11:58:10.696Z,103
2023-02-25T11:59:10.338Z,103
2023-02-25T12:00:10.306Z,103
2023-02-25T12:01:12.454Z,103
2023-02-25T12:02:10.485Z,103
2023-02-25T12:03:10.449Z,103
2023-02-25T12:04:10.020Z,103
2023-02-25T12:05:09.959Z,103
2023-02-25T12:06:10.222Z,103
2023-02-25T12:07:10.067Z,100
2023-02-25T12:08:22.005Z,100
2023-02-25T12:09:10.716Z,100
2023-02-25T12:10:10.380Z,100
2023-02-25T12:11:10.354Z,100
2023-02-25T12:12:10.172Z,100
2023-02-25T12:13:09.808Z,100
2023-02-25T12:14:10.652Z,100
2023-02-25T12:15:10.440Z,100
2023-02-25T12:16:10.687Z,100
2023-02-25T12:17:10.353Z,100
2023-02-25T12:18:11.288Z,100
2023-02-25T12:19:12.286Z,100
2023-02-25T12:20:10.682Z,100
2023-02-25T12:21:10.114Z,100
2023-02-25T12:22:10.906Z,100
2023-02-25T12:23:10.679Z,100
2023-02-25T12:24:10.539Z,100
2023-02-25T12:25:10.032Z,100
2023-02-25T12:26:10.353Z,100
2023-02-25T12:27:10.275Z,100
2023-02-25T12:28:09.736Z,100
2023-02-25T12:29:10.735Z,100
2023-02-25T12:30:10.097Z,100
2023-02-25T12:31:10.588Z,100
2023-02-25T12:32:10.918Z,100
2023-02-25T12:33:10.871Z,100
2023-02-25T12:34:10.564Z,100
2023-02-25T12:35:10.337Z,100
2023-02-25T12:36:10.658Z,100
2023-02-25T12:37:10.226Z,100
2023-02-25T12:38:10.008Z,100
2023-02-25T12:39:10.746Z,100
2023-02-25T12:40:10.578Z,100
2023-02-25T12:41:10.732Z,100
2023-02-25T12:42:10.649Z,100
2023-02-25T12:43:10.480Z,100
2023-02-25T12:44:10.267Z,100
2023-02-25T12:45:10.160Z,100
2023-02-25T12:46:10.786Z,100
2023-02-25T12:47:09.963Z,100
2023-02-25T12:48:10.078Z,100
2023-02-25T12:49:10.889Z,100
2023-02-25T12:50:10.544Z,100
2023-02-25T12:51:10.685Z,100
2023-02-25T12:52:10.638Z,100
2023-02-25T12:53:10.343Z,100
2023-02-25T12:54:10.119Z,100
2023-02-25T12:55:10.891Z,100
2023-02-25T12:56:09.829Z,100
2023-02-25T12:57:10.882Z,100
2023-02-25T12:58:10.596Z,100
2023-02-25T12:59:10.397Z,100
2023-02-25T13:00:10.253Z,100
2023-02-25T13:01:10.603Z,100
2023-02-25T13:02:09.978Z,100
2023-02-25T13:03:10.871Z,100
2023-02-25T13:04:10.922Z,100
2023-02-25T13:05:10.224Z,100
2023-02-25T13:06:10.741Z,100
2023-02-25T13:07:10.350Z,103
2023-02-25T13:08:09.978Z,103
2023-02-25T13:09:10.855Z,103
2023-02-25T13:10:10.990Z,103
2023-02-25T13:11:10.783Z,103
2023-02-25T13:12:20.081Z,103
2023-02-25T13:14:10.252Z,103
2023-02-25T13:15:09.887Z,103
2023-02-25T13:16:10.618Z,103
2023-02-25T13:17:10.369Z,103
2023-02-25T13:18:10.109Z,103
2023-02-25T13:19:10.784Z,103
2023-02-25T13:20:10.812Z,103
2023-02-25T13:21:11.852Z,103
2023-02-25T13:22:10.768Z,103
2023-02-25T13:23:10.664Z,103
2023-02-25T13:24:10.414Z,103
2023-02-25T13:25:10.133Z,103
2023-02-25T13:26:10.029Z,103
2023-02-25T13:27:10.763Z,103
2023-02-25T13:28:10.465Z,103
2023-02-25T13:29:10.434Z,103
2023-02-25T13:30:10.036Z,103
2023-02-25T13:31:10.738Z,103
2023-02-25T13:32:10.965Z,103
2023-02-25T13:33:10.230Z,103
2023-02-25T13:34:10.152Z,103
2023-02-25T13:35:10.748Z,103
2023-02-25T13:36:10.158Z,103
2023-02-25T13:37:10.937Z,103
2023-02-25T13:38:10.547Z,103
2023-02-25T13:39:10.187Z,103
2023-02-25T13:40:10.257Z,103
2023-02-25T13:41:10.507Z,103
2023-02-25T13:42:10.242Z,103
2023-02-25T13:43:09.929Z,103
2023-02-25T13:44:10.897Z,103
2023-02-25T13:45:10.544Z,103
2023-02-25T13:46:10.555Z,103
2023-02-25T13:47:10.401Z,103
2023-02-25T13:48:10.149Z,103
2023-02-25T13:49:09.923Z,103